Latest Weather Observations for Degrussa Aerodrome

IDW60801

Issued at 6:43 am WST Friday 19 August 2022 (issued every 10 minutes, with the page automatically refreshed every 10 minutes)

About weather observations | Map of weather stations | Latest weather observations for WA | Other Formats
Station Details ID: 507500 Name: DEGRUSSA AERODROME Lat: -25.56 Lon: 119.29 Height: 550.91 m
Data from the previous 72 hours. | See also: Recent months for locations in Western Australia
Date/Time
WST
Temp
°C
App
Temp
°C
Dew
Point
°C
Rel
Hum
%
Delta-T
°C
Wind Press
QNH
hPa
Press
MSL
hPa
Rain since
9am
mm
Dir  Spd
km/h
Gust
km/h
Spd
kts
Gust
kts
19/06:30am 8.9 4.1 -2.7 44 4.5 ESE 13 19 7 10 1026.5 1025.6 -
19/06:00am 9.0 4.2 -2.6 44 4.5 SE 13 17 7 9 1026.4 1025.5 -
19/05:30am 9.0 4.2 -2.6 44 4.5 ESE 13 19 7 10 1026.1 1025.2 -
19/05:00am 9.4 5.0 -2.8 42 4.7 ESE 11 17 6 9 1026.1 1025.2 -
19/04:30am 9.7 5.2 -2.9 41 4.9 ESE 11 17 6 9 1025.9 1025.0 -
19/04:00am 10.1 5.6 -2.9 40 5.0 ESE 11 17 6 9 1025.7 1024.8 -
19/03:30am 10.4 5.6 -2.9 39 5.2 ESE 13 17 7 9 1025.8 1024.9 -
19/03:00am 10.7 5.8 -3.0 38 5.3 ESE 13 20 7 11 1025.7 1024.8 0.0
19/02:30am 10.9 6.0 -3.6 36 5.6 ESE 13 19 7 10 1025.7 1024.8 -
19/02:00am 11.1 5.4 -3.8 35 5.7 ESE 17 26 9 14 1025.7 1024.8 -
19/01:30am 11.3 6.0 -4.0 34 5.9 SE 15 24 8 13 1025.7 1024.8 -
19/01:00am 11.7 6.8 -3.6 34 5.9 ESE 13 20 7 11 1025.8 1024.9 -
19/12:30am 12.1 6.8 -3.3 34 6.1 ESE 15 20 8 11 1025.8 1024.9 -
19/12:00am 12.7 7.5 -3.1 33 6.3 ESE 15 20 8 11 1026.0 1025.1 -
 
Date/Time
WST
Temp
°C
App
Temp
°C
Dew
Point
°C
Rel
Hum
%
Delta-T
°C
Wind Press
QNH
hPa
Press
MSL
hPa
Rain since
9am
mm
Dir  Spd
km/h
Gust
km/h
Spd
kts
Gust
kts
18/11:30pm 13.4 8.1 -3.4 31 6.7 ESE 15 20 8 11 1026.0 1025.1 -
18/11:00pm 13.3 9.3 -2.6 33 6.4 ESE 9 13 5 7 1025.9 1025.0 -
18/10:30pm 13.8 9.8 -2.6 32 6.7 ESE 9 13 5 7 1025.8 1024.9 -
18/10:00pm 14.2 9.4 -2.2 32 6.7 SE 13 17 7 9 1025.7 1024.8 -
18/09:30pm 14.4 9.7 -2.1 32 6.8 SE 13 19 7 10 1025.6 1024.7 -
18/09:00pm 14.8 10.1 -2.1 31 7.0 SE 13 19 7 10 1025.8 1024.9 0.0
18/08:30pm 15.2 10.5 -1.8 31 7.1 SE 13 19 7 10 1025.6 1024.7 -
18/08:00pm 15.9 10.8 -2.1 29 7.5 SE 15 19 8 10 1025.2 1024.2 -
18/07:30pm 16.4 11.3 -2.1 28 7.8 SE 15 20 8 11 1024.9 1023.9 -
18/07:00pm 17.0 11.4 -2.6 26 8.2 SE 17 22 9 12 1024.4 1023.5 -
18/06:30pm 17.5 11.8 -3.8 23 8.8 SE 17 26 9 14 1024.0 1023.1 -
18/06:00pm 18.2 11.5 -3.8 22 9.1 ESE 22 30 12 16 1023.7 1022.7 -
18/05:30pm 18.9 12.2 -3.9 21 9.5 ESE 22 33 12 18 1023.5 1022.5 -
18/05:00pm 19.8 13.0 -5.2 18 10.2 ESE 22 32 12 17 1023.2 1022.2 -
18/04:30pm 20.6 13.8 -5.3 17 10.7 ESE 22 33 12 18 1023.1 1022.1 -
18/04:00pm 21.0 14.3 -4.2 18 10.6 ESE 22 35 12 19 1022.9 1021.9 -
18/03:30pm 20.4 14.1 -4.0 19 10.3 E 20 32 11 17 1022.9 1021.9 -
18/03:00pm 20.6 14.4 -3.1 20 10.2 ESE 20 32 11 17 1022.7 1021.8 -
18/02:30pm 20.0 13.8 -3.0 21 9.9 ESE 20 35 11 19 1022.9 1021.9 -
18/02:00pm 20.1 13.5 -2.9 21 9.8 ESE 22 33 12 18 1023.0 1022.0 -
18/01:30pm 19.5 13.1 -1.6 24 9.3 ESE 22 32 12 17 1023.1 1022.1 -
18/01:00pm 18.6 12.0 -0.2 28 8.4 ESE 24 35 13 19 1023.5 1022.5 -
18/12:30pm 18.5 11.8 -0.8 27 8.5 ESE 24 35 13 19 1023.9 1023.0 -
18/12:00pm 18.1 11.9 -0.2 29 8.1 SE 22 32 12 17 1024.2 1023.3 0.0
18/11:30am 17.6 11.2 0.7 32 7.6 SE 24 33 13 18 1024.3 1023.4 0.0
18/11:00am 16.2 10.2 1.1 36 6.8 SE 22 30 12 16 1024.7 1023.8 0.0
18/10:30am 15.3 9.4 1.4 39 6.3 SE 22 32 12 17 1024.9 1023.9 0.0
18/10:00am 15.0 8.8 2.2 42 5.8 SE 24 32 13 17 1025.0 1024.0 0.0
18/09:30am 13.3 7.6 3.1 50 4.7 SE 22 33 12 18 1025.1 1024.1 0.0
18/09:00am 12.9 7.2 3.0 51 4.5 SE 22 32 12 17 1025.1 1024.1 -
18/08:30am 11.7 6.0 2.7 54 4.0 SE 22 35 12 19 1025.0 1024.0 -
18/08:00am 11.0 5.4 3.3 59 3.5 SE 22 33 12 18 1024.7 1023.8 -
18/07:30am 10.3 5.8 4.2 66 2.8 SSE 17 26 9 14 1024.3 1023.4 -
18/07:00am 10.0 5.0 4.6 69 2.5 SSE 20 28 11 15 1024.0 1023.1 -
18/06:30am 9.8 5.4 5.0 72 2.2 SSE 17 22 9 12 1023.5 1022.5 -
18/06:00am 10.3 5.4 5.1 70 2.4 SSE 20 32 11 17 1023.2 1022.2 -
18/05:30am 10.8 6.5 5.1 68 2.7 S 17 22 9 12 1022.7 1021.8 -
18/05:00am 11.3 7.0 5.4 67 2.8 S 17 22 9 12 1022.4 1021.5 -
18/04:30am 11.4 6.4 6.3 71 2.5 S 22 28 12 15 1022.3 1021.4 -
18/04:00am 11.3 5.0 7.2 76 2.0 S 30 37 16 20 1022.1 1021.1 -
18/03:30am 12.0 6.5 9.2 83 1.5 SSW 28 37 15 20 1021.7 1020.7 -
18/03:00am 13.4 9.0 8.9 74 2.3 SSW 22 28 12 15 1021.4 1020.4 0.0
18/02:30am 13.6 8.8 8.7 72 2.5 SSW 24 39 13 21 1021.4 1020.4 -
18/02:00am 13.3 8.9 10.3 82 1.6 SSW 24 35 13 19 1021.2 1020.2 -
18/01:30am 14.5 9.2 9.7 73 2.6 SW 28 37 15 20 1020.8 1019.9 -
18/01:00am 14.9 9.9 6.5 57 4.2 WSW 22 32 12 17 1020.6 1019.7 -
18/12:30am 15.0 11.2 6.0 55 4.5 WSW 15 19 8 10 1020.5 1019.5 -
18/12:00am 15.2 11.8 6.0 54 4.5 WSW 13 19 7 10 1020.3 1019.3 -
 
Date/Time
WST
Temp
°C
App
Temp
°C
Dew
Point
°C
Rel
Hum
%
Delta-T
°C
Wind Press
QNH
hPa
Press
MSL
hPa
Rain since
9am
mm
Dir  Spd
km/h
Gust
km/h
Spd
kts
Gust
kts
17/11:30pm 15.4 12.0 5.9 53 4.7 W 13 17 7 9 1020.6 1019.7 -
17/11:00pm 15.8 12.4 5.7 51 5.0 WSW 13 19 7 10 1020.7 1019.8 -
17/10:30pm 16.3 12.1 5.9 50 5.2 WSW 17 22 9 12 1020.5 1019.5 -
17/10:00pm 16.4 12.1 5.4 48 5.4 WSW 17 22 9 12 1020.4 1019.4 -
17/09:30pm 16.6 13.1 5.3 47 5.6 WSW 13 19 7 10 1020.0 1019.0 -
17/09:00pm 17.0 13.4 5.0 45 5.9 WSW 13 17 7 9 1019.7 1018.7 0.0
17/08:30pm 17.6 13.6 4.9 43 6.3 WSW 15 17 8 9 1019.7 1018.7 -
17/07:00pm 19.0 14.5 4.4 38 7.2 WSW 17 24 9 13 1019.1 1018.1 -
17/06:30pm 19.5 14.5 4.4 37 7.5 WSW 20 24 11 13 1018.6 1017.6 -
17/06:00pm 20.0 14.5 4.1 35 7.8 WSW 22 30 12 16 1018.0 1017.0 -
17/05:30pm 20.6 15.1 3.8 33 8.3 W 22 30 12 16 1017.7 1016.7 -
17/05:00pm 21.2 16.1 3.9 32 8.6 W 20 30 11 16 1017.4 1016.3 -
17/04:30pm 21.6 14.8 3.3 30 9.0 W 28 39 15 21 1017.2 1016.1 -
17/04:00pm 22.0 16.2 2.2 27 9.5 W 22 37 12 20 1017.1 1016.0 -
17/03:30pm 22.0 15.8 2.2 27 9.6 W 24 35 13 19 1016.9 1015.9 -
17/03:00pm 22.3 17.0 2.9 28 9.5 W 20 33 11 18 1017.1 1016.0 -
17/02:30pm 21.9 15.8 2.6 28 9.4 W 24 39 13 21 1017.1 1016.0 -
17/02:00pm 21.6 15.8 2.3 28 9.3 W 22 37 12 20 1017.3 1016.2 -
17/01:30pm 21.9 16.1 2.1 27 9.5 W 22 32 12 17 1017.4 1016.3 -
17/01:00pm 20.7 15.3 2.5 30 8.7 W 20 39 11 21 1017.8 1016.8 -
17/12:30pm 20.7 15.2 1.6 28 9.0 WSW 20 33 11 18 1018.3 1017.3 -
17/12:00pm 20.3 14.7 1.2 28 8.9 W 20 37 11 20 1018.9 1017.9 -
17/11:30am 20.0 13.6 1.0 28 8.8 WSW 24 32 13 17 1019.3 1018.3 -
17/10:30am 18.3 11.3 4.1 39 6.9 W 30 41 16 22 1020.0 1019.0 -
17/10:00am 17.4 12.2 8.8 57 4.6 W 26 35 14 19 1020.2 1019.2 -
17/09:30am 16.6 12.5 10.0 65 3.6 WSW 22 32 12 17 1020.3 1019.3 -
17/09:00am 16.2 12.0 9.8 66 3.4 WSW 22 - 12 - - 1019.0 -
17/08:30am 16.2 11.7 10.1 67 3.3 WSW 24 32 13 17 1019.7 1018.7 -
17/08:08am 15.0 11.6 11.2 78 2.1 W 20 32 11 17 1019.5 1018.5 -
17/08:00am 14.6 10.4 11.0 79 2.0 WSW 24 33 13 18 1019.5 1018.5 -
17/07:30am 14.3 10.9 12.5 89 1.0 WSW 22 28 12 15 1019.2 1018.2 -
17/07:12am 14.5 11.5 12.5 88 1.1 WSW 20 24 11 13 1018.8 1017.8 -
17/07:00am 14.6 10.8 12.5 87 1.2 WSW 24 30 13 16 1018.5 1017.5 -
17/06:54am 14.6 10.3 12.1 85 1.4 WSW 26 33 14 18 1018.4 1017.4 -
17/06:47am 14.5 10.2 12.2 86 1.3 WSW 26 35 14 19 1018.4 1017.4 -
17/06:31am 14.6 10.8 12.5 87 1.2 SW 24 33 13 18 1018.1 1017.1 -
17/06:30am 14.6 10.8 12.5 87 1.2 SW 24 33 13 18 1018.1 1017.1 -
17/06:00am 14.8 11.1 12.7 87 1.2 SW 24 33 13 18 1017.6 1016.6 -
17/05:30am 15.0 11.0 12.9 87 1.2 WSW 26 35 14 19 1016.9 1015.9 -
17/05:02am 15.2 11.7 13.4 89 1.0 WSW 24 32 13 17 1016.4 1015.4 -
17/05:00am 15.3 11.5 13.7 90 0.9 WSW 26 37 14 20 1016.4 1015.4 -
17/04:41am 16.1 13.1 14.8 92 0.8 WSW 24 30 13 16 1016.1 1015.1 -
17/04:34am 16.5 14.0 15.2 92 0.8 WSW 22 30 12 16 1016.0 1015.0 -
17/04:30am 16.8 14.3 15.2 90 1.0 SW 22 30 12 16 1016.0 1015.0 -
17/04:00am 18.3 15.5 14.2 77 2.4 W 22 35 12 19 1015.6 1014.5 -
17/03:30am 19.0 17.4 14.9 77 2.5 W 17 22 9 12 1015.3 1014.2 -
17/03:00am 19.4 18.3 15.3 77 2.5 W 15 20 8 11 1015.3 1014.2 0.0
17/02:30am 19.6 17.7 15.3 76 2.6 WSW 19 26 10 14 1015.4 1014.3 -
17/02:00am 19.7 18.3 15.6 77 2.5 W 17 24 9 13 1015.4 1014.3 -
17/01:30am 20.4 19.4 15.6 74 2.9 W 15 22 8 12 1015.3 1014.2 -
17/01:00am 20.7 18.3 15.5 72 3.2 W 22 32 12 17 1015.3 1014.2 -
17/12:30am 20.8 19.0 15.6 72 3.2 W 19 30 10 16 1015.3 1014.2 -
17/12:00am 20.9 18.3 15.9 73 3.1 W 24 35 13 19 1015.5 1014.4 -
 
Date/Time
WST
Temp
°C
App
Temp
°C
Dew
Point
°C
Rel
Hum
%
Delta-T
°C
Wind Press
QNH
hPa
Press
MSL
hPa
Rain since
9am
mm
Dir  Spd
km/h
Gust
km/h
Spd
kts
Gust
kts
16/11:30pm 21.2 18.6 16.0 72 3.2 W 24 33 13 18 1015.4 1014.3 -
16/11:00pm 22.1 20.3 15.9 68 3.8 W 20 28 11 15 1015.2 1014.1 -
16/10:30pm 22.4 21.2 16.0 67 4.0 W 17 26 9 14 1015.2 1014.1 -
16/10:00pm 22.6 20.8 15.9 66 4.1 WSW 20 28 11 15 1015.2 1014.1 -
16/09:30pm 23.1 21.4 15.7 63 4.6 W 19 28 10 15 1015.0 1014.0 -
16/09:00pm 23.7 22.0 15.7 61 4.9 W 19 26 10 14 1014.6 1013.6 0.0
16/08:30pm 24.4 22.3 14.8 55 5.9 W 19 28 10 15 1014.6 1013.6 -
16/08:00pm 25.2 22.4 14.3 50 6.6 W 22 32 12 17 1014.6 1013.6 -
16/07:30pm 25.9 23.6 13.1 45 7.7 W 17 26 9 14 1014.1 1013.0 -
16/07:00pm 27.4 22.8 8.3 30 10.6 NW 22 32 12 17 1013.6 1012.5 -
16/06:30pm 27.6 22.6 8.0 29 10.9 NW 24 35 13 19 1013.5 1012.4 -
16/06:00pm 27.8 22.2 7.1 27 11.3 NW 26 39 14 21 1013.3 1012.2 -
16/05:30pm 28.1 22.0 6.8 26 11.6 NW 28 39 15 21 1013.0 1012.0 -
16/05:00pm 28.2 21.7 6.3 25 11.8 NW 30 46 16 25 1012.9 1011.9 -
16/04:44pm 28.4 21.5 6.5 25 11.9 NW 32 56 17 30 1012.9 1011.9 -
16/04:30pm 28.6 22.5 6.7 25 11.9 NW 28 43 15 23 1012.9 1011.9 -
16/04:00pm 29.1 22.1 5.9 23 12.5 NW 32 44 17 24 1012.7 1011.6 -
16/03:38pm 29.8 22.8 5.8 22 13.0 NW 32 52 17 28 1012.6 1011.5 -
16/03:30pm 29.6 23.1 6.3 23 12.7 NW 30 41 16 22 1012.7 1011.6 -
16/03:00pm 29.8 22.2 5.8 22 13.0 NW 35 54 19 29 1012.7 1011.6 -
16/02:33pm 30.1 22.9 6.1 22 13.0 NW 33 52 18 28 1012.7 1011.6 -
16/02:30pm 29.7 22.1 5.7 22 12.9 NW 35 52 19 28 1012.7 1011.6 -
16/02:00pm 29.6 21.2 5.6 22 12.9 NNW 39 56 21 30 1012.8 1011.8 -
16/01:41pm 29.5 21.1 5.6 22 12.8 NW 39 57 21 31 1012.8 1011.8 -
16/01:30pm 30.3 21.9 5.6 21 13.3 NNW 39 52 21 28 1012.8 1011.8 -
16/01:22pm 31.0 24.0 6.1 21 13.6 NW 32 52 17 28 1012.9 1011.9 -
16/01:00pm 30.1 23.1 6.1 22 13.1 NW 32 44 17 24 1013.3 1012.2 -
16/12:35pm 30.0 22.2 6.6 23 12.8 NW 37 56 20 30 1013.7 1012.6 -
16/12:30pm 30.0 22.9 6.6 23 12.8 NW 33 50 18 27 1013.9 1012.8 -
16/12:00pm 29.8 22.9 6.5 23 12.7 NW 32 43 17 23 1014.2 1013.1 -
16/11:30am 29.2 22.0 6.0 23 12.5 NW 33 48 18 26 1014.7 1013.7 0.0
16/11:00am 28.7 21.0 5.5 23 12.4 NW 35 52 19 28 1015.2 1014.1 0.0
16/10:58am 28.9 21.7 5.7 23 12.4 NW 33 52 18 28 1015.3 1014.2 0.0
16/10:30am 27.7 20.0 5.3 24 11.9 NW 35 46 19 25 1015.6 1014.5 0.0
16/10:13am 27.6 20.4 5.8 25 11.6 NW 33 54 18 29 1015.8 1014.7 0.0
16/10:00am 27.0 20.0 5.9 26 11.2 NW 32 44 17 24 1016.0 1015.0 0.0
16/09:30am 25.8 20.3 5.9 28 10.5 NW 24 39 13 21 1016.1 1015.1 0.0
16/09:00am 24.7 19.7 6.4 31 9.7 NW 22 33 12 18 1016.3 1015.3 0.0
16/08:30am 23.4 18.8 6.7 34 8.8 NW 20 32 11 17 1016.2 1015.2 0.0
16/08:00am 22.2 18.9 6.4 36 8.3 NNW 13 19 7 10 1016.1 1015.1 0.0
16/07:30am 21.5 19.1 7.0 39 7.6 NNW 9 15 5 8 1015.9 1014.8 0.0
16/07:00am 21.6 18.5 7.4 40 7.5 NNW 13 19 7 10 1015.7 1014.6 0.0

Other formats

Comma delimited format used in spreadsheet applications
http://www.bom.gov.au/fwo/IDW60801/IDW60801.99400.axf

JavaScript Object Notation format (JSON) in row-major order
http://www.bom.gov.au/fwo/IDW60801/IDW60801.99400.json

Data quality

Most of these data are generated automatically and are frequently updated. Quality checks on data are not normally performed. It is possible for incorrect values to appear. Refer to information at About Latest Weather Observations and please check the disclaimer before using these data.